sensor_id;sensor_type;location;lat;lon;timestamp;P1;durP1;ratioP1;P2;durP2;ratioP2
30000;SDS011;16845;48.670;9.000;2023-06-04T00:01:12;10.00;;;7.30;;
30000;SDS011;16845;48.670;9.000;2023-06-04T00:03:42;10.80;;;7.32;;
30000;SDS011;16845;48.670;9.000;2023-06-04T00:06:10;14.43;;;7.57;;
30000;SDS011;16845;48.670;9.000;2023-06-04T00:08:36;9.23;;;7.07;;
30000;SDS011;16845;48.670;9.000;2023-06-04T00:11:03;9.77;;;7.03;;
30000;SDS011;16845;48.670;9.000;2023-06-04T00:13:30;14.18;;;7.20;;
30000;SDS011;16845;48.670;9.000;2023-06-04T00:15:56;11.20;;;7.63;;
30000;SDS011;16845;48.670;9.000;2023-06-04T00:18:23;14.23;;;8.02;;
30000;SDS011;16845;48.670;9.000;2023-06-04T00:20:49;10.82;;;7.40;;
30000;SDS011;16845;48.670;9.000;2023-06-04T00:23:17;13.85;;;7.80;;
30000;SDS011;16845;48.670;9.000;2023-06-04T00:25:44;12.50;;;8.30;;
30000;SDS011;16845;48.670;9.000;2023-06-04T00:28:11;13.30;;;7.47;;
30000;SDS011;16845;48.670;9.000;2023-06-04T00:30:37;14.75;;;8.00;;
30000;SDS011;16845;48.670;9.000;2023-06-04T00:33:04;13.55;;;8.30;;
30000;SDS011;16845;48.670;9.000;2023-06-04T00:35:31;15.63;;;8.17;;
30000;SDS011;16845;48.670;9.000;2023-06-04T00:37:58;12.13;;;8.65;;
30000;SDS011;16845;48.670;9.000;2023-06-04T00:40:25;13.00;;;8.77;;
30000;SDS011;16845;48.670;9.000;2023-06-04T00:42:52;12.65;;;7.93;;
30000;SDS011;16845;48.670;9.000;2023-06-04T00:45:19;11.50;;;8.33;;
30000;SDS011;16845;48.670;9.000;2023-06-04T00:47:45;9.57;;;7.47;;
30000;SDS011;16845;48.670;9.000;2023-06-04T00:50:12;15.68;;;7.18;;
30000;SDS011;16845;48.670;9.000;2023-06-04T00:52:40;12.48;;;7.85;;
30000;SDS011;16845;48.670;9.000;2023-06-04T00:55:07;13.20;;;8.73;;
30000;SDS011;16845;48.670;9.000;2023-06-04T01:00:03;15.25;;;7.95;;
30000;SDS011;16845;48.670;9.000;2023-06-04T01:02:31;14.68;;;8.43;;
30000;SDS011;16845;48.670;9.000;2023-06-04T01:05:01;14.57;;;8.00;;
30000;SDS011;16845;48.670;9.000;2023-06-04T01:07:32;13.60;;;8.68;;
30000;SDS011;16845;48.670;9.000;2023-06-04T01:10:00;11.68;;;8.32;;
30000;SDS011;16845;48.670;9.000;2023-06-04T01:12:28;10.27;;;7.50;;
30000;SDS011;16845;48.670;9.000;2023-06-04T01:14:55;9.45;;;6.68;;
30000;SDS011;16845;48.670;9.000;2023-06-04T01:17:23;15.52;;;8.13;;
30000;SDS011;16845;48.670;9.000;2023-06-04T01:20:01;12.20;;;8.70;;
30000;SDS011;16845;48.670;9.000;2023-06-04T01:22:35;14.02;;;8.48;;
30000;SDS011;16845;48.670;9.000;2023-06-04T01:25:05;10.85;;;7.78;;
30000;SDS011;16845;48.670;9.000;2023-06-04T01:27:38;14.63;;;8.70;;
30000;SDS011;16845;48.670;9.000;2023-06-04T01:30:08;11.20;;;8.52;;
30000;SDS011;16845;48.670;9.000;2023-06-04T01:32:35;11.77;;;8.40;;
30000;SDS011;16845;48.670;9.000;2023-06-04T01:35:02;10.52;;;7.97;;
30000;SDS011;16845;48.670;9.000;2023-06-04T01:37:33;12.93;;;7.50;;
30000;SDS011;16845;48.670;9.000;2023-06-04T01:39:59;13.90;;;8.10;;
30000;SDS011;16845;48.670;9.000;2023-06-04T01:42:26;16.50;;;8.77;;
30000;SDS011;16845;48.670;9.000;2023-06-04T01:44:52;10.63;;;7.35;;
30000;SDS011;16845;48.670;9.000;2023-06-04T01:47:20;13.75;;;8.77;;
30000;SDS011;16845;48.670;9.000;2023-06-04T01:49:47;13.38;;;8.27;;
30000;SDS011;16845;48.670;9.000;2023-06-04T01:52:13;12.80;;;8.50;;
30000;SDS011;16845;48.670;9.000;2023-06-04T01:54:40;17.20;;;8.63;;
30000;SDS011;16845;48.670;9.000;2023-06-04T01:57:06;14.63;;;8.07;;
30000;SDS011;16845;48.670;9.000;2023-06-04T01:59:33;13.45;;;8.63;;
30000;SDS011;16845;48.670;9.000;2023-06-04T02:02:01;12.48;;;8.90;;
30000;SDS011;16845;48.670;9.000;2023-06-04T02:04:29;11.75;;;7.95;;
30000;SDS011;16845;48.670;9.000;2023-06-04T02:06:55;12.60;;;9.00;;
30000;SDS011;16845;48.670;9.000;2023-06-04T02:09:22;12.93;;;9.30;;
30000;SDS011;16845;48.670;9.000;2023-06-04T02:11:48;13.95;;;8.48;;
30000;SDS011;16845;48.670;9.000;2023-06-04T02:14:15;14.43;;;9.18;;
30000;SDS011;16845;48.670;9.000;2023-06-04T02:16:41;12.60;;;8.63;;
30000;SDS011;16845;48.670;9.000;2023-06-04T02:19:08;10.10;;;8.20;;
30000;SDS011;16845;48.670;9.000;2023-06-04T02:21:36;18.98;;;8.65;;
30000;SDS011;16845;48.670;9.000;2023-06-04T02:24:02;12.85;;;8.68;;
30000;SDS011;16845;48.670;9.000;2023-06-04T02:26:29;15.10;;;8.87;;
30000;SDS011;16845;48.670;9.000;2023-06-04T02:28:55;18.00;;;8.65;;
30000;SDS011;16845;48.670;9.000;2023-06-04T02:31:22;13.18;;;8.27;;
30000;SDS011;16845;48.670;9.000;2023-06-04T02:33:48;13.82;;;8.13;;
30000;SDS011;16845;48.670;9.000;2023-06-04T02:36:15;13.73;;;8.30;;
30000;SDS011;16845;48.670;9.000;2023-06-04T02:38:43;15.10;;;8.82;;
30000;SDS011;16845;48.670;9.000;2023-06-04T02:41:09;12.07;;;7.95;;
30000;SDS011;16845;48.670;9.000;2023-06-04T02:43:36;11.80;;;8.82;;
30000;SDS011;16845;48.670;9.000;2023-06-04T02:46:02;12.90;;;7.97;;
30000;SDS011;16845;48.670;9.000;2023-06-04T02:48:29;13.33;;;8.80;;
30000;SDS011;16845;48.670;9.000;2023-06-04T02:50:55;16.77;;;9.25;;
30000;SDS011;16845;48.670;9.000;2023-06-04T02:53:22;11.95;;;9.10;;
30000;SDS011;16845;48.670;9.000;2023-06-04T02:55:50;14.68;;;8.18;;
30000;SDS011;16845;48.670;9.000;2023-06-04T02:58:16;13.20;;;8.07;;
30000;SDS011;16845;48.670;9.000;2023-06-04T03:00:43;12.63;;;8.95;;
30000;SDS011;16845;48.670;9.000;2023-06-04T03:03:09;14.77;;;8.57;;
30000;SDS011;16845;48.670;9.000;2023-06-04T03:05:36;13.27;;;8.83;;
30000;SDS011;16845;48.670;9.000;2023-06-04T03:08:02;13.45;;;8.45;;
30000;SDS011;16845;48.670;9.000;2023-06-04T03:10:29;12.05;;;8.50;;
30000;SDS011;16845;48.670;9.000;2023-06-04T03:12:57;12.32;;;8.23;;
30000;SDS011;16845;48.670;9.000;2023-06-04T03:15:23;14.60;;;9.15;;
30000;SDS011;16845;48.670;9.000;2023-06-04T03:17:50;15.52;;;8.30;;
30000;SDS011;16845;48.670;9.000;2023-06-04T03:20:17;12.18;;;9.02;;
30000;SDS011;16845;48.670;9.000;2023-06-04T03:22:43;13.95;;;8.77;;
30000;SDS011;16845;48.670;9.000;2023-06-04T03:25:10;16.23;;;8.03;;
30000;SDS011;16845;48.670;9.000;2023-06-04T03:27:36;12.65;;;8.90;;
30000;SDS011;16845;48.670;9.000;2023-06-04T03:30:06;11.93;;;8.13;;
30000;SDS011;16845;48.670;9.000;2023-06-04T03:32:33;14.07;;;8.90;;
30000;SDS011;16845;48.670;9.000;2023-06-04T03:35:00;12.13;;;7.57;;
30000;SDS011;16845;48.670;9.000;2023-06-04T03:37:27;12.63;;;7.63;;
30000;SDS011;16845;48.670;9.000;2023-06-04T03:39:53;10.65;;;7.55;;
30000;SDS011;16845;48.670;9.000;2023-06-04T03:42:19;10.38;;;6.93;;
30000;SDS011;16845;48.670;9.000;2023-06-04T03:44:46;14.50;;;7.93;;
30000;SDS011;16845;48.670;9.000;2023-06-04T03:47:14;10.18;;;6.70;;
30000;SDS011;16845;48.670;9.000;2023-06-04T03:49:40;12.30;;;8.05;;
30000;SDS011;16845;48.670;9.000;2023-06-04T03:52:07;8.48;;;7.15;;
30000;SDS011;16845;48.670;9.000;2023-06-04T03:54:34;11.80;;;7.85;;
30000;SDS011;16845;48.670;9.000;2023-06-04T03:57:00;11.00;;;7.45;;
30000;SDS011;16845;48.670;9.000;2023-06-04T03:59:27;18.23;;;7.67;;
30000;SDS011;16845;48.670;9.000;2023-06-04T04:01:53;9.38;;;7.43;;
30000;SDS011;16845;48.670;9.000;2023-06-04T04:04:21;15.05;;;8.52;;
30000;SDS011;16845;48.670;9.000;2023-06-04T04:06:48;11.52;;;7.90;;
30000;SDS011;16845;48.670;9.000;2023-06-04T04:09:14;9.55;;;7.40;;
30000;SDS011;16845;48.670;9.000;2023-06-04T04:11:41;12.23;;;7.15;;
30000;SDS011;16845;48.670;9.000;2023-06-04T04:14:07;10.98;;;7.15;;
30000;SDS011;16845;48.670;9.000;2023-06-04T04:16:34;10.07;;;7.30;;
30000;SDS011;16845;48.670;9.000;2023-06-04T04:19:01;9.45;;;7.00;;
30000;SDS011;16845;48.670;9.000;2023-06-04T04:21:28;12.57;;;7.97;;
30000;SDS011;16845;48.670;9.000;2023-06-04T04:23:55;10.75;;;7.38;;
30000;SDS011;16845;48.670;9.000;2023-06-04T04:26:22;13.07;;;6.37;;
30000;SDS011;16845;48.670;9.000;2023-06-04T04:28:48;13.35;;;7.07;;
30000;SDS011;16845;48.670;9.000;2023-06-04T04:31:15;10.35;;;7.38;;
30000;SDS011;16845;48.670;9.000;2023-06-04T04:33:41;12.60;;;6.47;;
30000;SDS011;16845;48.670;9.000;2023-06-04T04:36:08;11.98;;;7.07;;
30000;SDS011;16845;48.670;9.000;2023-06-04T04:38:36;9.63;;;7.38;;
30000;SDS011;16845;48.670;9.000;2023-06-04T04:41:02;12.05;;;7.07;;
30000;SDS011;16845;48.670;9.000;2023-06-04T04:43:29;9.97;;;7.80;;
30000;SDS011;16845;48.670;9.000;2023-06-04T04:45:57;13.30;;;6.72;;
30000;SDS011;16845;48.670;9.000;2023-06-04T04:48:23;9.90;;;6.78;;
30000;SDS011;16845;48.670;9.000;2023-06-04T04:50:50;10.23;;;7.43;;
30000;SDS011;16845;48.670;9.000;2023-06-04T04:53:17;14.88;;;7.70;;
30000;SDS011;16845;48.670;9.000;2023-06-04T04:55:45;10.45;;;6.60;;
30000;SDS011;16845;48.670;9.000;2023-06-04T04:58:11;6.20;;;5.53;;
30000;SDS011;16845;48.670;9.000;2023-06-04T05:00:38;10.68;;;7.70;;
30000;SDS011;16845;48.670;9.000;2023-06-04T05:03:04;9.98;;;6.38;;
30000;SDS011;16845;48.670;9.000;2023-06-04T05:05:31;10.90;;;7.33;;
30000;SDS011;16845;48.670;9.000;2023-06-04T05:07:58;8.27;;;6.20;;
30000;SDS011;16845;48.670;9.000;2023-06-04T05:10:24;11.10;;;7.63;;
30000;SDS011;16845;48.670;9.000;2023-06-04T05:12:53;7.97;;;6.57;;
30000;SDS011;16845;48.670;9.000;2023-06-04T05:15:19;8.07;;;6.13;;
30000;SDS011;16845;48.670;9.000;2023-06-04T05:17:46;15.02;;;7.32;;
30000;SDS011;16845;48.670;9.000;2023-06-04T05:20:13;11.55;;;6.90;;
30000;SDS011;16845;48.670;9.000;2023-06-04T05:22:40;10.03;;;6.73;;
30000;SDS011;16845;48.670;9.000;2023-06-04T05:25:06;12.50;;;7.00;;
30000;SDS011;16845;48.670;9.000;2023-06-04T05:30:01;8.85;;;6.13;;
30000;SDS011;16845;48.670;9.000;2023-06-04T05:32:28;9.43;;;5.95;;
30000;SDS011;16845;48.670;9.000;2023-06-04T05:34:56;10.97;;;6.27;;
30000;SDS011;16845;48.670;9.000;2023-06-04T05:37:23;10.45;;;6.38;;
30000;SDS011;16845;48.670;9.000;2023-06-04T05:39:50;10.05;;;6.10;;
30000;SDS011;16845;48.670;9.000;2023-06-04T05:42:16;8.30;;;6.15;;
30000;SDS011;16845;48.670;9.000;2023-06-04T05:44:43;9.43;;;6.40;;
30000;SDS011;16845;48.670;9.000;2023-06-04T05:47:11;13.20;;;6.32;;
30000;SDS011;16845;48.670;9.000;2023-06-04T05:49:37;9.77;;;6.00;;
30000;SDS011;16845;48.670;9.000;2023-06-04T05:52:04;5.33;;;3.90;;
30000;SDS011;16845;48.670;9.000;2023-06-04T05:54:31;5.28;;;3.92;;
30000;SDS011;16845;48.670;9.000;2023-06-04T05:56:57;7.22;;;4.63;;
30000;SDS011;16845;48.670;9.000;2023-06-04T05:59:24;9.02;;;5.97;;
30000;SDS011;16845;48.670;9.000;2023-06-04T06:01:50;10.82;;;5.10;;
30000;SDS011;16845;48.670;9.000;2023-06-04T06:04:18;10.20;;;6.45;;
30000;SDS011;16845;48.670;9.000;2023-06-04T06:06:45;9.55;;;5.82;;
30000;SDS011;16845;48.670;9.000;2023-06-04T06:09:11;9.17;;;5.97;;
30000;SDS011;16845;48.670;9.000;2023-06-04T06:11:38;8.68;;;5.05;;
30000;SDS011;16845;48.670;9.000;2023-06-04T06:14:04;6.90;;;5.28;;
30000;SDS011;16845;48.670;9.000;2023-06-04T06:16:31;8.48;;;5.22;;
30000;SDS011;16845;48.670;9.000;2023-06-04T06:18:58;11.10;;;5.35;;
30000;SDS011;16845;48.670;9.000;2023-06-04T06:21:27;9.52;;;4.60;;
30000;SDS011;16845;48.670;9.000;2023-06-04T06:23:54;9.93;;;4.78;;
30000;SDS011;16845;48.670;9.000;2023-06-04T06:26:20;7.93;;;4.10;;
30000;SDS011;16845;48.670;9.000;2023-06-04T06:28:47;5.53;;;4.03;;
30000;SDS011;16845;48.670;9.000;2023-06-04T06:31:14;6.40;;;4.43;;
30000;SDS011;16845;48.670;9.000;2023-06-04T06:33:41;4.78;;;3.72;;
30000;SDS011;16845;48.670;9.000;2023-06-04T06:36:07;10.23;;;4.03;;
30000;SDS011;16845;48.670;9.000;2023-06-04T06:38:35;7.90;;;3.80;;
30000;SDS011;16845;48.670;9.000;2023-06-04T06:41:02;4.18;;;2.75;;
30000;SDS011;16845;48.670;9.000;2023-06-04T06:43:28;6.93;;;3.58;;
30000;SDS011;16845;48.670;9.000;2023-06-04T06:45:55;7.15;;;3.17;;
30000;SDS011;16845;48.670;9.000;2023-06-04T06:48:21;4.72;;;3.22;;
30000;SDS011;16845;48.670;9.000;2023-06-04T06:50:48;2.38;;;2.17;;
30000;SDS011;16845;48.670;9.000;2023-06-04T06:53:14;9.80;;;2.88;;
30000;SDS011;16845;48.670;9.000;2023-06-04T06:55:42;6.17;;;3.40;;
30000;SDS011;16845;48.670;9.000;2023-06-04T06:58:08;6.93;;;2.55;;
30000;SDS011;16845;48.670;9.000;2023-06-04T07:00:35;3.95;;;3.25;;
30000;SDS011;16845;48.670;9.000;2023-06-04T07:03:02;5.28;;;3.00;;
30000;SDS011;16845;48.670;9.000;2023-06-04T07:05:28;4.50;;;2.80;;
30000;SDS011;16845;48.670;9.000;2023-06-04T07:07:55;6.55;;;2.88;;
30000;SDS011;16845;48.670;9.000;2023-06-04T07:10:21;8.48;;;3.20;;
30000;SDS011;16845;48.670;9.000;2023-06-04T07:12:49;6.03;;;2.80;;
30000;SDS011;16845;48.670;9.000;2023-06-04T07:15:15;4.15;;;2.55;;
30000;SDS011;16845;48.670;9.000;2023-06-04T07:17:42;4.90;;;2.87;;
30000;SDS011;16845;48.670;9.000;2023-06-04T07:20:08;3.45;;;1.88;;
30000;SDS011;16845;48.670;9.000;2023-06-04T07:22:35;5.03;;;2.63;;
30000;SDS011;16845;48.670;9.000;2023-06-04T07:25:02;8.30;;;3.67;;
30000;SDS011;16845;48.670;9.000;2023-06-04T07:27:28;5.65;;;2.95;;
30000;SDS011;16845;48.670;9.000;2023-06-04T07:29:56;4.90;;;2.92;;
30000;SDS011;16845;48.670;9.000;2023-06-04T07:32:23;6.65;;;2.58;;
30000;SDS011;16845;48.670;9.000;2023-06-04T07:34:49;2.33;;;1.88;;
30000;SDS011;16845;48.670;9.000;2023-06-04T07:37:16;3.33;;;2.72;;
30000;SDS011;16845;48.670;9.000;2023-06-04T07:39:43;5.83;;;2.60;;
30000;SDS011;16845;48.670;9.000;2023-06-04T07:42:09;6.00;;;2.38;;
30000;SDS011;16845;48.670;9.000;2023-06-04T07:44:36;3.90;;;2.87;;
30000;SDS011;16845;48.670;9.000;2023-06-04T07:47:05;5.95;;;3.35;;
30000;SDS011;16845;48.670;9.000;2023-06-04T07:49:31;5.97;;;3.80;;
30000;SDS011;16845;48.670;9.000;2023-06-04T07:51:58;8.70;;;3.47;;
30000;SDS011;16845;48.670;9.000;2023-06-04T07:54:24;4.13;;;3.30;;
30000;SDS011;16845;48.670;9.000;2023-06-04T07:56:51;7.17;;;2.90;;
30000;SDS011;16845;48.670;9.000;2023-06-04T07:59:18;4.57;;;3.05;;
30000;SDS011;16845;48.670;9.000;2023-06-04T08:01:44;4.53;;;2.97;;
30000;SDS011;16845;48.670;9.000;2023-06-04T08:04:12;4.43;;;3.00;;
30000;SDS011;16845;48.670;9.000;2023-06-04T08:06:39;6.03;;;2.65;;
30000;SDS011;16845;48.670;9.000;2023-06-04T08:09:05;3.43;;;2.63;;
30000;SDS011;16845;48.670;9.000;2023-06-04T08:11:32;4.87;;;2.93;;
30000;SDS011;16845;48.670;9.000;2023-06-04T08:13:58;3.67;;;2.70;;
30000;SDS011;16845;48.670;9.000;2023-06-04T08:16:25;5.63;;;2.70;;
30000;SDS011;16845;48.670;9.000;2023-06-04T08:18:51;4.03;;;3.07;;
30000;SDS011;16845;48.670;9.000;2023-06-04T08:21:26;10.40;;;4.80;;
30000;SDS011;16845;48.670;9.000;2023-06-04T08:23:53;4.50;;;2.92;;
30000;SDS011;16845;48.670;9.000;2023-06-04T08:26:19;5.53;;;2.53;;
30000;SDS011;16845;48.670;9.000;2023-06-04T08:28:47;4.85;;;3.15;;
30000;SDS011;16845;48.670;9.000;2023-06-04T08:31:14;6.78;;;2.65;;
30000;SDS011;16845;48.670;9.000;2023-06-04T08:33:40;5.25;;;2.90;;
30000;SDS011;16845;48.670;9.000;2023-06-04T08:36:07;3.67;;;2.83;;
30000;SDS011;16845;48.670;9.000;2023-06-04T08:38:35;6.90;;;2.70;;
30000;SDS011;16845;48.670;9.000;2023-06-04T08:41:02;6.88;;;3.05;;
30000;SDS011;16845;48.670;9.000;2023-06-04T08:43:36;5.63;;;2.92;;
30000;SDS011;16845;48.670;9.000;2023-06-04T08:46:03;3.28;;;2.83;;
30000;SDS011;16845;48.670;9.000;2023-06-04T08:48:31;6.60;;;2.90;;
30000;SDS011;16845;48.670;9.000;2023-06-04T08:50:58;5.95;;;2.92;;
30000;SDS011;16845;48.670;9.000;2023-06-04T08:53:29;6.03;;;2.95;;
30000;SDS011;16845;48.670;9.000;2023-06-04T08:55:57;5.53;;;2.67;;
30000;SDS011;16845;48.670;9.000;2023-06-04T08:58:25;6.65;;;2.70;;
30000;SDS011;16845;48.670;9.000;2023-06-04T09:00:54;4.50;;;2.75;;
30000;SDS011;16845;48.670;9.000;2023-06-04T09:03:20;4.78;;;2.90;;
30000;SDS011;16845;48.670;9.000;2023-06-04T09:05:48;11.40;;;3.15;;
30000;SDS011;16845;48.670;9.000;2023-06-04T09:08:15;8.07;;;2.95;;
30000;SDS011;16845;48.670;9.000;2023-06-04T09:10:44;3.55;;;2.58;;
30000;SDS011;16845;48.670;9.000;2023-06-04T09:13:12;12.05;;;4.38;;
30000;SDS011;16845;48.670;9.000;2023-06-04T09:15:40;5.07;;;2.85;;
30000;SDS011;16845;48.670;9.000;2023-06-04T09:18:07;6.65;;;2.55;;
30000;SDS011;16845;48.670;9.000;2023-06-04T09:20:33;3.70;;;2.85;;
30000;SDS011;16845;48.670;9.000;2023-06-04T09:23:00;7.93;;;3.10;;
30000;SDS011;16845;48.670;9.000;2023-06-04T09:25:27;5.45;;;2.60;;
30000;SDS011;16845;48.670;9.000;2023-06-04T09:27:54;4.45;;;2.95;;
30000;SDS011;16845;48.670;9.000;2023-06-04T09:32:49;4.68;;;3.13;;
30000;SDS011;16845;48.670;9.000;2023-06-04T09:35:16;5.45;;;2.85;;
30000;SDS011;16845;48.670;9.000;2023-06-04T09:37:51;8.30;;;4.00;;
30000;SDS011;16845;48.670;9.000;2023-06-04T09:40:18;5.57;;;2.58;;
30000;SDS011;16845;48.670;9.000;2023-06-04T09:45:12;3.08;;;2.72;;
30000;SDS011;16845;48.670;9.000;2023-06-04T09:47:41;3.72;;;3.08;;
30000;SDS011;16845;48.670;9.000;2023-06-04T09:50:09;5.90;;;3.35;;
30000;SDS011;16845;48.670;9.000;2023-06-04T09:52:37;6.43;;;3.50;;
30000;SDS011;16845;48.670;9.000;2023-06-04T09:55:03;4.68;;;2.63;;
30000;SDS011;16845;48.670;9.000;2023-06-04T09:57:41;7.90;;;3.03;;
30000;SDS011;16845;48.670;9.000;2023-06-04T10:00:12;5.22;;;2.97;;
30000;SDS011;16845;48.670;9.000;2023-06-04T10:02:41;5.05;;;3.22;;
30000;SDS011;16845;48.670;9.000;2023-06-04T10:05:10;6.90;;;3.65;;
30000;SDS011;16845;48.670;9.000;2023-06-04T10:07:37;6.40;;;3.05;;
30000;SDS011;16845;48.670;9.000;2023-06-04T10:10:06;5.82;;;3.28;;
30000;SDS011;16845;48.670;9.000;2023-06-04T10:12:36;5.30;;;3.30;;
30000;SDS011;16845;48.670;9.000;2023-06-04T10:15:05;4.35;;;3.10;;
30000;SDS011;16845;48.670;9.000;2023-06-04T10:17:33;8.52;;;3.35;;
30000;SDS011;16845;48.670;9.000;2023-06-04T10:20:03;8.30;;;3.47;;
30000;SDS011;16845;48.670;9.000;2023-06-04T10:22:31;4.43;;;3.20;;
30000;SDS011;16845;48.670;9.000;2023-06-04T10:27:24;6.88;;;3.50;;
30000;SDS011;16845;48.670;9.000;2023-06-04T10:29:51;6.78;;;3.80;;
30000;SDS011;16845;48.670;9.000;2023-06-04T10:32:18;6.00;;;3.40;;
30000;SDS011;16845;48.670;9.000;2023-06-04T10:34:45;4.40;;;3.33;;
30000;SDS011;16845;48.670;9.000;2023-06-04T10:37:19;5.30;;;3.15;;
30000;SDS011;16845;48.670;9.000;2023-06-04T10:39:49;3.13;;;2.80;;
30000;SDS011;16845;48.670;9.000;2023-06-04T10:42:17;6.88;;;3.15;;
30000;SDS011;16845;48.670;9.000;2023-06-04T10:44:45;8.20;;;3.15;;
30000;SDS011;16845;48.670;9.000;2023-06-04T10:47:17;3.63;;;2.90;;
30000;SDS011;16845;48.670;9.000;2023-06-04T10:49:44;4.22;;;2.97;;
30000;SDS011;16845;48.670;9.000;2023-06-04T10:52:11;8.73;;;4.05;;
30000;SDS011;16845;48.670;9.000;2023-06-04T10:54:40;5.78;;;2.75;;
30000;SDS011;16845;48.670;9.000;2023-06-04T10:57:11;3.78;;;3.10;;
30000;SDS011;16845;48.670;9.000;2023-06-04T10:59:38;3.75;;;2.97;;
30000;SDS011;16845;48.670;9.000;2023-06-04T11:02:05;4.60;;;3.17;;
30000;SDS011;16845;48.670;9.000;2023-06-04T11:04:32;7.60;;;3.47;;
30000;SDS011;16845;48.670;9.000;2023-06-04T11:07:00;5.00;;;3.13;;
30000;SDS011;16845;48.670;9.000;2023-06-04T11:09:27;5.38;;;3.10;;
30000;SDS011;16845;48.670;9.000;2023-06-04T11:11:58;4.25;;;3.58;;
30000;SDS011;16845;48.670;9.000;2023-06-04T11:14:26;4.03;;;3.60;;
30000;SDS011;16845;48.670;9.000;2023-06-04T11:16:54;3.20;;;2.92;;
30000;SDS011;16845;48.670;9.000;2023-06-04T11:19:21;4.88;;;3.05;;
30000;SDS011;16845;48.670;9.000;2023-06-04T11:21:48;5.95;;;3.40;;
30000;SDS011;16845;48.670;9.000;2023-06-04T11:24:15;7.72;;;3.85;;
30000;SDS011;16845;48.670;9.000;2023-06-04T11:26:42;4.43;;;3.30;;
30000;SDS011;16845;48.670;9.000;2023-06-04T11:29:27;3.60;;;3.08;;
30000;SDS011;16845;48.670;9.000;2023-06-04T11:31:54;7.13;;;3.08;;
30000;SDS011;16845;48.670;9.000;2023-06-04T11:36:50;5.13;;;3.42;;
30000;SDS011;16845;48.670;9.000;2023-06-04T11:39:17;3.85;;;3.17;;
30000;SDS011;16845;48.670;9.000;2023-06-04T11:44:10;4.03;;;3.25;;
30000;SDS011;16845;48.670;9.000;2023-06-04T11:46:40;11.63;;;3.75;;
30000;SDS011;16845;48.670;9.000;2023-06-04T11:49:11;6.50;;;3.25;;
30000;SDS011;16845;48.670;9.000;2023-06-04T11:51:38;5.10;;;3.50;;
30000;SDS011;16845;48.670;9.000;2023-06-04T11:54:04;5.25;;;3.50;;
30000;SDS011;16845;48.670;9.000;2023-06-04T11:56:31;4.47;;;3.40;;
30000;SDS011;16845;48.670;9.000;2023-06-04T12:01:24;3.58;;;2.88;;
30000;SDS011;16845;48.670;9.000;2023-06-04T12:03:52;5.88;;;3.30;;
30000;SDS011;16845;48.670;9.000;2023-06-04T12:06:19;6.75;;;3.30;;
30000;SDS011;16845;48.670;9.000;2023-06-04T12:08:49;4.50;;;3.13;;
30000;SDS011;16845;48.670;9.000;2023-06-04T12:11:26;4.85;;;3.08;;
30000;SDS011;16845;48.670;9.000;2023-06-04T12:13:55;9.30;;;3.13;;
30000;SDS011;16845;48.670;9.000;2023-06-04T12:16:21;4.40;;;3.38;;
30000;SDS011;16845;48.670;9.000;2023-06-04T12:21:20;7.70;;;3.35;;
30000;SDS011;16845;48.670;9.000;2023-06-04T12:23:48;5.75;;;3.00;;
30000;SDS011;16845;48.670;9.000;2023-06-04T12:26:20;8.23;;;3.25;;
30000;SDS011;16845;48.670;9.000;2023-06-04T12:28:57;8.77;;;3.65;;
30000;SDS011;16845;48.670;9.000;2023-06-04T12:31:24;3.93;;;3.20;;
30000;SDS011;16845;48.670;9.000;2023-06-04T12:33:51;5.05;;;3.65;;
30000;SDS011;16845;48.670;9.000;2023-06-04T12:36:17;5.93;;;3.45;;
30000;SDS011;16845;48.670;9.000;2023-06-04T12:38:45;8.63;;;3.72;;
30000;SDS011;16845;48.670;9.000;2023-06-04T12:41:13;4.63;;;3.67;;
30000;SDS011;16845;48.670;9.000;2023-06-04T12:43:40;5.80;;;3.38;;
30000;SDS011;16845;48.670;9.000;2023-06-04T12:46:07;6.20;;;3.78;;
30000;SDS011;16845;48.670;9.000;2023-06-04T12:51:00;7.97;;;3.80;;
30000;SDS011;16845;48.670;9.000;2023-06-04T12:53:27;6.28;;;3.58;;
30000;SDS011;16845;48.670;9.000;2023-06-04T12:55:54;5.10;;;3.80;;
30000;SDS011;16845;48.670;9.000;2023-06-04T12:58:21;11.02;;;3.78;;
30000;SDS011;16845;48.670;9.000;2023-06-04T13:00:47;5.07;;;3.97;;
30000;SDS011;16845;48.670;9.000;2023-06-04T13:03:14;3.45;;;2.58;;
30000;SDS011;16845;48.670;9.000;2023-06-04T13:05:41;5.63;;;3.00;;
30000;SDS011;16845;48.670;9.000;2023-06-04T13:10:34;8.27;;;3.45;;
30000;SDS011;16845;48.670;9.000;2023-06-04T13:13:02;6.38;;;3.55;;
30000;SDS011;16845;48.670;9.000;2023-06-04T13:15:28;5.32;;;3.67;;
30000;SDS011;16845;48.670;9.000;2023-06-04T13:17:55;7.38;;;3.70;;
30000;SDS011;16845;48.670;9.000;2023-06-04T13:20:21;9.38;;;4.13;;
30000;SDS011;16845;48.670;9.000;2023-06-04T13:22:48;5.93;;;3.67;;
30000;SDS011;16845;48.670;9.000;2023-06-04T13:25:15;10.75;;;4.35;;
30000;SDS011;16845;48.670;9.000;2023-06-04T13:27:41;5.82;;;3.63;;
30000;SDS011;16845;48.670;9.000;2023-06-04T13:30:09;5.53;;;3.83;;
30000;SDS011;16845;48.670;9.000;2023-06-04T13:32:37;6.15;;;4.60;;
30000;SDS011;16845;48.670;9.000;2023-06-04T13:35:04;4.78;;;3.25;;
30000;SDS011;16845;48.670;9.000;2023-06-04T13:37:31;7.18;;;4.25;;
30000;SDS011;16845;48.670;9.000;2023-06-04T13:39:58;4.35;;;3.72;;
30000;SDS011;16845;48.670;9.000;2023-06-04T13:42:24;9.15;;;4.28;;
30000;SDS011;16845;48.670;9.000;2023-06-04T13:44:51;8.18;;;4.25;;
30000;SDS011;16845;48.670;9.000;2023-06-04T13:47:19;4.35;;;3.38;;
30000;SDS011;16845;48.670;9.000;2023-06-04T13:49:45;6.30;;;3.45;;
30000;SDS011;16845;48.670;9.000;2023-06-04T13:52:12;5.50;;;3.58;;
30000;SDS011;16845;48.670;9.000;2023-06-04T13:54:38;4.47;;;3.05;;
30000;SDS011;16845;48.670;9.000;2023-06-04T13:57:05;3.65;;;3.30;;
30000;SDS011;16845;48.670;9.000;2023-06-04T14:01:59;6.03;;;3.08;;
30000;SDS011;16845;48.670;9.000;2023-06-04T14:04:27;10.88;;;3.92;;
30000;SDS011;16845;48.670;9.000;2023-06-04T14:06:53;4.80;;;3.45;;
30000;SDS011;16845;48.670;9.000;2023-06-04T14:09:20;3.65;;;2.72;;
30000;SDS011;16845;48.670;9.000;2023-06-04T14:11:46;7.38;;;3.33;;
30000;SDS011;16845;48.670;9.000;2023-06-04T14:14:14;3.78;;;2.70;;
30000;SDS011;16845;48.670;9.000;2023-06-04T14:16:41;4.53;;;3.17;;
30000;SDS011;16845;48.670;9.000;2023-06-04T14:19:07;5.38;;;3.15;;
30000;SDS011;16845;48.670;9.000;2023-06-04T14:21:35;4.22;;;2.97;;
30000;SDS011;16845;48.670;9.000;2023-06-04T14:24:02;4.60;;;3.67;;
30000;SDS011;16845;48.670;9.000;2023-06-04T14:28:56;5.03;;;3.13;;
30000;SDS011;16845;48.670;9.000;2023-06-04T14:31:23;4.55;;;3.67;;
30000;SDS011;16845;48.670;9.000;2023-06-04T14:33:49;4.82;;;2.22;;
30000;SDS011;16845;48.670;9.000;2023-06-04T14:36:16;4.28;;;2.88;;
30000;SDS011;16845;48.670;9.000;2023-06-04T14:38:44;9.23;;;2.92;;
30000;SDS011;16845;48.670;9.000;2023-06-04T14:41:10;4.40;;;3.05;;
30000;SDS011;16845;48.670;9.000;2023-06-04T14:43:37;6.53;;;3.10;;
30000;SDS011;16845;48.670;9.000;2023-06-04T14:46:04;5.38;;;3.17;;
30000;SDS011;16845;48.670;9.000;2023-06-04T14:48:30;4.25;;;3.25;;
30000;SDS011;16845;48.670;9.000;2023-06-04T14:50:57;3.13;;;2.83;;
30000;SDS011;16845;48.670;9.000;2023-06-04T14:53:23;5.75;;;3.20;;
30000;SDS011;16845;48.670;9.000;2023-06-04T14:55:51;5.00;;;3.45;;
30000;SDS011;16845;48.670;9.000;2023-06-04T14:58:18;5.03;;;3.47;;
30000;SDS011;16845;48.670;9.000;2023-06-04T15:00:44;7.13;;;3.28;;
30000;SDS011;16845;48.670;9.000;2023-06-04T15:03:11;4.78;;;3.28;;
30000;SDS011;16845;48.670;9.000;2023-06-04T15:05:38;4.38;;;3.28;;
30000;SDS011;16845;48.670;9.000;2023-06-04T15:08:04;5.47;;;3.40;;
30000;SDS011;16845;48.670;9.000;2023-06-04T15:10:31;5.47;;;3.50;;
30000;SDS011;16845;48.670;9.000;2023-06-04T15:12:59;8.20;;;3.60;;
30000;SDS011;16845;48.670;9.000;2023-06-04T15:15:25;5.10;;;3.83;;